• Join FlightAware (Why Join?)
  • Login
  • US Flag 
07:01AM EST


 

Airport Tracker/Info


-or-


 

Live Flight TrackerFlight Track Log ✈ N589H ✈ 16-Jul-2014 ✈ KILM - KTEB

Flight Track Log - Related Links

Times and Time Zones

All times are in EDT time to prevent confusion due to time zone crossing. See the N589H flight status page for this flight to view local times or setup timezone preferences in your user account.

Time Position Orientation Groundspeed Altitude Reporting Facility
EDT Latitude Longitude Course Direction KTS MPH feet Rate Location/Type
06:55PM 34.2561 -77.9992 24° Northeast 176 203 3,700  Level Washington Center
06:57PM 34.3086 -77.9856 12° North 152 175 5,500 1,918 Climbing Washington Center
06:58PM 34.3608 -77.9744 10° North 163 188 7,600 1,983 Climbing Washington Center
06:59PM 34.4197 -77.9561 14° North 195 224 9,500 1,983 Climbing Washington Center
06:59PM 34.4806 -77.9403 12° North 213 245 11,500 1,950 Climbing Washington Center
07:00PM 34.7976 -77.6215 24° Northeast  Level Estimated
07:01PM 34.5456 -77.9244 11° North 225 259 13,400  Level Washington Center
07:02PM 34.6147 -77.9086 11° North 230 265 14,900 1,678 Climbing Washington Center
07:02PM 34.6858 -77.8956 North 246 283 16,700 1,613 Climbing Washington Center
07:04PM 34.7569 -77.8822 North 256 295 18,100 1,525 Climbing Washington Center
07:05PM 34.8408 -77.8694 North 266 306 19,800 1,587 Climbing Washington Center
07:06PM 34.9181 -77.8667 North 271 312 21,300 1,424 Climbing Washington Center
07:06PM 34.9972 -77.8664 360° North 276 318 22,600 1,261 Climbing Washington Center
07:08PM 35.0767 -77.8636 North 373 429 23,800 1,131 Climbing Washington Center
07:09PM 35.1600 -77.8633 360° North 330 380 24,900 600 Climbing Washington Center
07:10PM 35.2500 -77.8608 North 316 364 25,000 50 Climbing Washington Center
07:11PM 35.3500 -77.8611 360° North 324 373 25,000  Level Washington Center
07:12PM 35.4544 -77.8589 North 352 405 25,000 -50 Level Washington Center
07:13PM 35.5608 -77.8567 North 367 422 24,900  Descending Washington Center
07:14PM 35.6694 -77.8572 360° North 379 436 25,000 50 Climbing Washington Center
07:15PM 35.7722 -77.8167 18° North 374 430 25,000  Level Washington Center
07:16PM 35.8817 -77.7711 19° North 389 448 25,000  Level Washington Center
07:17PM 35.9869 -77.7225 20° North 395 455 25,000  Level Washington Center
07:18PM 36.0961 -77.6767 19° North 400 460 25,000  Level Washington Center
07:19PM 36.2033 -77.6281 20° North 400 460 25,000  Level Washington Center
07:20PM 36.3106 -77.5794 20° North 406 467 25,000  Level Washington Center
07:21PM 36.4178 -77.5331 19° North 406 467 25,000  Level Washington Center
07:22PM 36.5103 -77.4889 21° North 406 467 25,000  Level Washington Center
07:23PM 36.6197 -77.4397 20° North 406 467 25,000  Level Washington Center
07:23PM 36.7247 -77.3931 20° North 406 467 25,000  Level Washington Center
07:25PM 36.8339 -77.3436 20° North 406 467 25,000  Level Washington Center
07:26PM 36.9536 -77.2892 20° North 412 474 25,000  Level Washington Center
07:26PM 37.0606 -77.2394 20° North 407 468 25,000  Level Washington Center
07:28PM 37.1697 -77.1897 20° North 407 468 25,000  Level Washington Center
07:29PM 37.2767 -77.1447 19° North 407 468 25,000  Level Washington Center
07:30PM 37.3858 -77.0869 23° Northeast 412 474 25,000  Level Washington Center
07:30PM 37.4911 -77.0236 26° Northeast 412 474 25,000  Level Washington Center
07:32PM 37.5875 -76.9678 25° Northeast 419 482 25,000  Level Washington Center
07:33PM 37.6947 -76.9039 25° Northeast 419 482 25,000  Level Washington Center
07:34PM 37.8017 -76.8403 25° Northeast 419 482 25,000  Level Washington Center
07:35PM 37.9086 -76.7789 24° Northeast 419 482 25,000 -397 Level Washington Center
07:36PM 38.0158 -76.7144 25° Northeast 419 482 24,200 -908 Descending Washington Center
07:37PM 38.1164 -76.6447 29° Northeast 419 482 23,200 -1,160 Descending Washington Center
07:38PM 38.1944 -76.5350 48° Northeast 414 476 21,900 -1,289 Descending Washington Center
07:39PM 38.2661 -76.4275 50° Northeast 398 458 20,600 -1,424 Descending Washington Center
07:39PM 38.3478 -76.3781 25° Northeast 375 432 19,100 -2,218 Descending Washington Center
07:41PM 38.4669 -76.3475 11° North 356 410 16,200 -2,628 Descending Washington Center
07:42PM 38.5567 -76.3217 13° North 345 397 13,800 -1,636 Descending Washington Center
07:43PM 38.6256 -76.3011 13° North 332 382 12,900 -446 Descending Washington Center
07:44PM 38.7300 -76.2622 16° North 316 364 12,900  Level Washington Center
07:44PM 38.8178 -76.2206 20° North 321 369 12,900 50 Level Washington Center
07:46PM 38.9014 -76.1731 24° Northeast 326 375 13,000  Climbing Washington Center
07:47PM 38.9789 -76.1256 25° Northeast 338 389 12,900 -397 Descending Washington Center
07:48PM 39.0644 -76.0808 22° Northeast 333 383 12,200 -458 Descending Washington Center
07:48PM 39.1481 -76.0358 23° Northeast 333 383 12,000 -151 Descending Washington Center
07:50PM 39.2317 -75.9908 23° Northeast 328 377 11,900 -36 Descending Washington Center
07:51PM 39.3833 -75.9000 25° Northeast 319 367 11,900 33 Level Philadelphia TRACON
07:53PM 39.4833 -75.8500 21° North 320 368 12,000  Climbing Philadelphia TRACON
07:54PM 39.5667 -75.8000 25° Northeast 318 366 11,900  Descending Philadelphia TRACON
07:54PM 39.6333 -75.7500 30° Northeast 326 375 12,000  Climbing Philadelphia TRACON
07:55PM 39.7167 -75.6833 32° Northeast 326 375 11,900 -50 Descending Philadelphia TRACON
07:56PM 39.7833 -75.6167 38° Northeast 335 386 11,900  Level Philadelphia TRACON
07:57PM 39.8667 -75.5333 37° Northeast 332 382 11,900  Level Philadelphia TRACON
07:58PM 39.9333 -75.4833 30° Northeast 333 383 11,900  Level Philadelphia TRACON
07:59PM 40.0000 -75.4167 37° Northeast 334 384 11,900  Level Philadelphia TRACON
08:00PM 40.0833 -75.3333 37° Northeast 337 388 11,900  Level Philadelphia TRACON
08:01PM 40.1500 -75.2667 37° Northeast 331 381 11,900 -158 Level Philadelphia TRACON
08:02PM 40.2167 -75.2000 37° Northeast 332 382 11,600 -713 Descending Philadelphia TRACON
08:04PM 40.3500 -75.0833 34° Northeast 322 371 10,000 -975 Descending New York TRACON
08:05PM 40.4000 -75.0000 52° Northeast 320 368 9,000 -1,050 Descending New York TRACON
08:06PM 40.4667 -74.9167 44° Northeast 306 352 7,900 -1,250 Descending New York TRACON
08:07PM 40.5333 -74.8500 37° Northeast 300 345 6,500 -1,700 Descending New York TRACON
08:08PM 40.6000 -74.8000 30° Northeast 278 320 4,500 -1,250 Descending New York TRACON
08:09PM 40.6500 -74.7333 45° Northeast 271 312 4,000 -250 Descending New York TRACON
08:10PM 40.7167 -74.6833 30° Northeast 272 313 4,000 -429 Level New York TRACON
08:11PM 40.7833 -74.6167 37° Northeast 265 305 3,100 -476 Descending New York TRACON
08:12PM 40.8333 -74.5500 45° Northeast 273 314 3,000 -50 Descending New York TRACON
08:13PM 40.8833 -74.4667 52° Northeast 271 312 3,000  Level New York TRACON
08:14PM 40.9333 -74.4167 37° Northeast 259 298 3,000  Level New York TRACON
08:15PM 40.9833 -74.3500 45° Northeast 261 300 3,000 -500 Level New York TRACON
08:16PM 40.9833 -74.2500 90° East 243 280 2,000 -500 Descending New York TRACON
08:17PM 40.9667 -74.1833 108° East 222 255 2,000 -100 Level New York TRACON
08:18PM 40.9500 -74.1000 105° East 228 262 1,800 -500 Descending New York TRACON
08:19PM 40.9167 -74.0500 131° Southeast 170 196 1,000 -700 Descending New York TRACON
08:20PM 40.8667 -74.0667 194° South 145 167 400 -600 Descending New York TRACON